Time;durP1;ratioP1;P1;durP2;ratioP2;P2;SDS_P1;SDS_P2;PMS_P1;PMS_P2;Temp;Humidity;BMP_temperature;BMP_pressure;BME280_temperature;BME280_humidity;BME280_pressure;Samples;Min_cycle;Max_cycle;Signal;HPM_P1;HPM_P2
2022/08/16 00:00:18;;;;;;;7.65;3.97;;;;;;;17.84;100.00;99607.56;4934797;28;20470;-66
2022/08/16 00:02:43;;;;;;;11.30;4.70;;;;;;;17.84;100.00;99606.75;4949063;28;20039;-67
2022/08/16 00:05:12;;;;;;;5.78;3.63;;;;;;;17.68;100.00;99591.38;4952245;28;20031;-66
2022/08/16 00:07:38;;;;;;;9.98;4.47;;;;;;;17.78;100.00;99617.94;4952256;28;20034;-66
2022/08/16 00:10:05;;;;;;;7.13;4.28;;;;;;;17.73;100.00;99614.88;4952169;29;20027;-66
2022/08/16 00:12:31;;;;;;;8.95;3.63;;;;;;;17.69;100.00;99608.16;4950077;28;20038;-67
2022/08/16 00:14:59;;;;;;;5.75;3.45;;;;;;;17.70;100.00;99612.50;5007481;28;20035;-67
2022/08/16 00:17:25;;;;;;;7.82;3.83;;;;;;;17.63;100.00;99608.75;4952190;28;20035;-67
2022/08/16 00:19:52;;;;;;;7.43;4.32;;;;;;;17.57;100.00;99604.00;4951008;28;20032;-67
2022/08/16 00:22:17;;;;;;;4.47;3.45;;;;;;;17.56;100.00;99608.47;4951439;29;20394;-67
2022/08/16 00:24:43;;;;;;;5.68;4.15;;;;;;;17.55;100.00;99611.22;4947406;28;20020;-67
2022/08/16 00:27:08;;;;;;;5.47;3.22;;;;;;;17.52;100.00;99617.66;4951406;28;20404;-67
2022/08/16 00:29:34;;;;;;;4.63;3.38;;;;;;;17.54;100.00;99625.50;4951677;28;20111;-67
2022/08/16 00:32:01;;;;;;;5.00;3.30;;;;;;;17.53;100.00;99627.31;4949962;28;20134;-67
2022/08/16 00:34:26;;;;;;;6.97;4.30;;;;;;;17.50;100.00;99629.41;4934366;29;20055;-67
2022/08/16 00:36:51;;;;;;;7.18;3.50;;;;;;;17.46;100.00;99626.19;4951517;28;20059;-67
2022/08/16 00:39:17;;;;;;;7.05;3.85;;;;;;;17.41;100.00;99620.44;4938018;28;20086;-67
2022/08/16 00:41:45;;;;;;;4.72;3.30;;;;;;;17.28;100.00;99615.41;4951568;28;20049;-67
2022/08/16 00:44:11;;;;;;;5.10;3.92;;;;;;;17.33;100.00;99618.50;5016938;28;20027;-67
2022/08/16 00:46:49;;;;;;;6.38;4.05;;;;;;;17.34;100.00;99622.81;4955273;28;20035;-67
2022/08/16 00:49:14;;;;;;;6.05;3.97;;;;;;;17.31;100.00;99616.94;4934039;28;20081;-67
2022/08/16 00:51:40;;;;;;;5.35;3.28;;;;;;;17.31;100.00;99617.78;4951236;28;20035;-67
2022/08/16 00:54:06;;;;;;;5.68;3.78;;;;;;;17.31;100.00;99620.44;4950118;28;21763;-67
2022/08/16 00:56:36;;;;;;;7.95;3.85;;;;;;;17.17;100.00;99602.25;4951319;28;20077;-67
2022/08/16 00:59:03;;;;;;;4.70;3.63;;;;;;;17.31;100.00;99630.22;4945526;28;20291;-67
2022/08/16 01:01:28;;;;;;;6.22;3.47;;;;;;;17.28;100.00;99626.03;4965857;28;20039;-67
2022/08/16 01:03:54;;;;;;;7.15;4.10;;;;;;;17.24;100.00;99629.09;4949321;28;20042;-67
2022/08/16 01:06:21;;;;;;;9.02;3.70;;;;;;;17.20;100.00;99625.88;5009616;28;20027;-67
2022/08/16 01:08:48;;;;;;;6.78;3.47;;;;;;;17.13;100.00;99622.13;4951132;28;20111;-67
2022/08/16 01:11:13;;;;;;;6.47;3.63;;;;;;;17.10;100.00;99621.56;4932284;28;20032;-67
2022/08/16 01:13:40;;;;;;;5.13;3.58;;;;;;;17.05;100.00;99613.16;4950749;28;20397;-67
2022/08/16 01:16:13;;;;;;;4.88;3.70;;;;;;;17.02;100.00;99624.88;4933336;29;20024;-67
2022/08/16 01:18:48;;;;;;;6.97;3.25;;;;;;;16.99;100.00;99619.84;4933867;28;20067;-67
2022/08/16 01:21:16;;;;;;;4.75;3.60;;;;;;;17.01;100.00;99623.19;4951157;28;20067;-67
2022/08/16 01:24:05;;;;;;;6.53;4.22;;;;;;;16.96;100.00;99628.09;4951073;28;20096;-67
2022/08/16 01:26:32;;;;;;;9.27;4.22;;;;;;;16.94;100.00;99626.53;4933199;28;20032;-67
2022/08/16 01:29:01;;;;;;;8.20;4.10;;;;;;;16.88;100.00;99619.09;4934250;29;20103;-67
2022/08/16 01:31:27;;;;;;;6.90;4.00;;;;;;;16.92;100.00;99617.88;4932515;29;20032;-67
2022/08/16 01:33:52;;;;;;;5.57;4.28;;;;;;;16.83;100.00;99604.44;4954032;29;20102;-67
2022/08/16 01:36:17;;;;;;;5.15;3.72;;;;;;;16.95;100.00;99623.75;4953959;28;20027;-67
2022/08/16 01:38:45;;;;;;;7.60;4.50;;;;;;;16.93;100.00;99620.41;4953515;28;20095;-68
2022/08/16 01:41:15;;;;;;;5.43;3.70;;;;;;;16.87;100.00;99615.59;4954143;29;20059;-67
2022/08/16 01:43:43;;;;;;;4.45;3.53;;;;;;;16.89;100.00;99623.44;4954100;28;20085;-68
2022/08/16 01:46:23;;;;;;;5.60;3.70;;;;;;;16.87;100.00;99626.22;4953943;28;20492;-67
2022/08/16 01:48:54;;;;;;;5.65;4.13;;;;;;;16.84;100.00;99631.81;4953628;28;20043;-68
2022/08/16 01:51:20;;;;;;;6.30;4.15;;;;;;;16.82;100.00;99631.97;4951616;29;20043;-67
2022/08/16 01:53:46;;;;;;;5.22;3.65;;;;;;;16.65;100.00;99602.56;4953704;28;20031;-67
2022/08/16 01:56:11;;;;;;;10.75;3.92;;;;;;;16.75;100.00;99628.16;4954347;28;20439;-67
2022/08/16 01:58:37;;;;;;;9.38;4.57;;;;;;;16.73;100.00;99624.78;4952202;28;20031;-67
2022/08/16 02:01:03;;;;;;;5.95;4.05;;;;;;;16.79;100.00;99637.53;4952975;28;20035;-67
2022/08/16 02:03:28;;;;;;;6.68;4.30;;;;;;;16.76;100.00;99621.06;4953513;28;20031;-67
2022/08/16 02:05:54;;;;;;;4.45;3.70;;;;;;;16.79;100.00;99631.38;4953634;28;20039;-67
2022/08/16 02:08:19;;;;;;;5.32;3.95;;;;;;;16.73;100.00;99619.47;4954002;28;20081;-67
2022/08/16 02:10:45;;;;;;;5.10;3.53;;;;;;;16.76;100.00;99623.72;4935908;28;20027;-67
2022/08/16 02:13:10;;;;;;;5.05;3.65;;;;;;;16.73;100.00;99621.28;4947967;28;20058;-67
2022/08/16 02:15:38;;;;;;;5.70;3.80;;;;;;;16.69;100.00;99617.25;4951230;29;20100;-67
2022/08/16 02:18:04;;;;;;;5.93;4.15;;;;;;;16.64;100.00;99614.16;4976761;28;20102;-67
2022/08/16 02:20:32;;;;;;;6.38;4.50;;;;;;;16.70;100.00;99625.06;4935829;28;20027;-67
2022/08/16 02:22:59;;;;;;;6.03;4.32;;;;;;;16.72;100.00;99632.91;4935603;28;20027;-67
2022/08/16 02:25:26;;;;;;;5.65;4.20;;;;;;;16.72;100.00;99624.94;4952989;29;20461;-67
2022/08/16 02:27:52;;;;;;;7.22;4.70;;;;;;;16.52;100.00;99604.59;4953562;28;20027;-67
2022/08/16 02:30:20;;;;;;;7.88;4.57;;;;;;;16.65;100.00;99616.69;4951981;28;20377;-66
2022/08/16 02:32:46;;;;;;;5.57;4.10;;;;;;;16.64;100.00;99619.47;4953370;28;20051;-67
2022/08/16 02:35:12;;;;;;;9.98;4.55;;;;;;;16.55;100.00;99610.50;4953030;28;20035;-67
2022/08/16 02:37:37;;;;;;;5.95;4.28;;;;;;;16.57;100.00;99618.31;4953299;28;20031;-67
2022/08/16 02:40:04;;;;;;;5.78;4.70;;;;;;;16.54;100.00;99621.19;4953150;28;20039;-67
2022/08/16 02:42:30;;;;;;;6.30;4.25;;;;;;;16.49;100.00;99616.31;4953326;28;20108;-67
2022/08/16 02:44:55;;;;;;;8.45;4.25;;;;;;;16.45;100.00;99614.91;4951027;29;20062;-66
2022/08/16 02:47:21;;;;;;;5.47;4.38;;;;;;;16.43;100.00;99613.31;4952954;28;20108;-66
2022/08/16 02:49:46;;;;;;;6.55;4.38;;;;;;;16.07;100.00;99559.88;4953109;28;20049;-66
2022/08/16 02:52:12;;;;;;;7.68;4.60;;;;;;;16.43;100.00;99621.28;4947431;28;20378;-66
2022/08/16 02:54:38;;;;;;;7.45;5.53;;;;;;;16.45;100.00;99608.75;4952622;28;20027;-67
2022/08/16 02:57:04;;;;;;;9.32;5.13;;;;;;;16.46;100.00;99610.44;4952988;29;20031;-66
2022/08/16 02:59:29;;;;;;;6.50;4.65;;;;;;;16.43;100.00;99608.88;4951851;28;20027;-67
2022/08/16 03:01:55;;;;;;;6.03;4.60;;;;;;;16.40;100.00;99610.94;4952803;28;20040;-67
2022/08/16 03:04:21;;;;;;;7.88;4.75;;;;;;;16.35;100.00;99614.84;4951824;28;20039;-67
2022/08/16 03:06:47;;;;;;;5.75;4.30;;;;;;;16.34;100.00;99617.63;4953236;29;20085;-67
2022/08/16 03:09:12;;;;;;;6.03;4.70;;;;;;;16.33;100.00;99622.09;4952122;28;20027;-67
2022/08/16 03:11:38;;;;;;;5.13;4.18;;;;;;;16.33;100.00;99616.78;4940613;28;20023;-67
2022/08/16 03:14:03;;;;;;;6.47;4.68;;;;;;;16.30;100.00;99617.06;4952906;29;20486;-67
2022/08/16 03:16:29;;;;;;;7.90;5.45;;;;;;;16.32;100.00;99623.06;4952306;28;20050;-67
2022/08/16 03:18:54;;;;;;;7.35;5.10;;;;;;;16.32;100.00;99624.88;4952848;28;20027;-67
2022/08/16 03:21:20;;;;;;;8.00;4.38;;;;;;;16.30;100.00;99618.88;4951912;28;20028;-67
2022/08/16 03:23:46;;;;;;;8.35;5.38;;;;;;;16.19;100.00;99614.47;4952387;28;20111;-67
2022/08/16 03:26:12;;;;;;;6.80;4.97;;;;;;;16.24;100.00;99622.88;4952234;28;20035;-67
2022/08/16 03:28:38;;;;;;;8.25;5.43;;;;;;;16.26;100.00;99633.34;4949933;28;20500;-66
2022/08/16 03:31:03;;;;;;;6.75;5.18;;;;;;;16.12;100.00;99600.06;4952097;28;20031;-66
2022/08/16 03:33:29;;;;;;;8.77;5.50;;;;;;;16.26;100.00;99628.88;4941798;28;20130;-66
2022/08/16 03:35:58;;;;;;;6.65;4.95;;;;;;;16.28;100.00;99634.06;4938610;28;20481;-66
2022/08/16 03:38:26;;;;;;;7.28;5.10;;;;;;;16.28;100.00;99639.38;4933831;28;20577;-66
2022/08/16 03:40:51;;;;;;;8.63;5.85;;;;;;;16.06;100.00;99603.25;4935946;28;20024;-66
2022/08/16 03:43:17;;;;;;;8.40;6.43;;;;;;;16.34;100.00;99645.00;4938782;28;20027;-66
2022/08/16 03:45:42;;;;;;;6.13;5.45;;;;;;;16.39;100.00;99651.72;4938868;28;20020;-66
2022/08/16 03:48:08;;;;;;;6.25;5.55;;;;;;;16.39;100.00;99651.72;4938610;29;20085;-66
2022/08/16 03:50:34;;;;;;;6.55;5.72;;;;;;;16.42;100.00;99656.75;4935922;28;20042;-66
2022/08/16 03:52:59;;;;;;;7.95;6.18;;;;;;;16.40;100.00;99648.06;4934943;28;20032;-66
2022/08/16 03:55:25;;;;;;;10.20;6.50;;;;;;;16.45;100.00;99653.84;4937938;28;20027;-66
2022/08/16 03:57:52;;;;;;;7.63;6.53;;;;;;;16.42;100.00;99646.16;4951911;28;20103;-66
2022/08/16 04:00:21;;;;;;;11.93;7.10;;;;;;;16.43;100.00;99646.00;4950438;29;20077;-66
2022/08/16 04:02:46;;;;;;;8.80;6.93;;;;;;;16.44;100.00;99649.50;4939148;28;20062;-66
2022/08/16 04:05:13;;;;;;;7.07;5.70;;;;;;;16.43;100.00;99653.94;4936309;28;20493;-66
2022/08/16 04:07:39;;;;;;;8.27;6.72;;;;;;;16.39;100.00;99641.09;4951201;28;20035;-66
2022/08/16 04:10:06;;;;;;;8.95;6.47;;;;;;;16.35;100.00;99640.53;4951871;29;20046;-66
2022/08/16 04:12:32;;;;;;;8.27;6.38;;;;;;;16.33;100.00;99639.81;4951631;28;20109;-66
2022/08/16 04:14:57;;;;;;;9.38;6.70;;;;;;;16.36;100.00;99661.59;4951929;28;20062;-66
2022/08/16 04:17:23;;;;;;;8.48;6.75;;;;;;;16.34;100.00;99645.00;4951561;28;20034;-66
2022/08/16 04:19:49;;;;;;;7.38;6.60;;;;;;;16.29;100.00;99647.19;4925206;28;20039;-66
2022/08/16 04:22:14;;;;;;;7.47;6.65;;;;;;;16.30;100.00;99659.47;4942216;28;20506;-66
2022/08/16 04:24:40;;;;;;;8.50;6.50;;;;;;;16.27;100.00;99659.75;4951586;28;20035;-66
2022/08/16 04:27:05;;;;;;;6.85;5.93;;;;;;;16.25;100.00;99658.19;4951531;28;20500;-66
2022/08/16 04:29:31;;;;;;;7.25;5.53;;;;;;;16.24;100.00;99669.75;4949955;29;20034;-66
2022/08/16 04:31:56;;;;;;;7.10;5.60;;;;;;;16.20;100.00;99663.88;4951471;28;20112;-66
2022/08/16 04:34:23;;;;;;;7.20;5.47;;;;;;;16.17;100.00;99663.31;4949405;28;20396;-66
2022/08/16 04:36:48;;;;;;;7.88;5.95;;;;;;;16.14;100.00;99661.75;4951613;28;20031;-66
2022/08/16 04:39:14;;;;;;;10.43;5.82;;;;;;;16.17;100.00;99669.44;4951869;28;20031;-66
2022/08/16 04:41:40;;;;;;;7.03;5.47;;;;;;;16.13;100.00;99668.03;4950963;28;20028;-66
2022/08/16 04:44:05;;;;;;;8.57;5.60;;;;;;;16.10;100.00;99662.97;4949647;28;20073;-66
2022/08/16 04:46:31;;;;;;;10.27;5.57;;;;;;;15.95;100.00;99637.78;4951353;28;20153;-66
2022/08/16 04:48:56;;;;;;;5.78;5.00;;;;;;;16.11;100.00;99664.69;4951332;28;20038;-66
2022/08/16 04:51:21;;;;;;;8.00;5.20;;;;;;;16.00;100.00;99640.88;4951561;29;20046;-66
2022/08/16 04:53:47;;;;;;;11.65;6.00;;;;;;;16.12;100.00;99657.56;4943379;28;20046;-66
2022/08/16 04:56:14;;;;;;;7.88;5.68;;;;;;;16.04;100.00;99650.25;4951385;29;20020;-66
2022/08/16 04:58:39;;;;;;;9.20;5.95;;;;;;;16.15;100.00;99658.16;4934054;29;20058;-66
2022/08/16 05:01:04;;;;;;;8.63;6.05;;;;;;;16.18;100.00;99672.94;4951238;28;20114;-66
2022/08/16 05:03:30;;;;;;;7.65;5.35;;;;;;;16.22;100.00;99672.53;4941384;28;20031;-66
2022/08/16 05:05:55;;;;;;;6.97;6.28;;;;;;;16.26;100.00;99678.41;4935733;28;20499;-66
2022/08/16 05:08:22;;;;;;;7.68;6.50;;;;;;;16.30;100.00;99678.03;4953252;28;20114;-66
2022/08/16 05:10:48;;;;;;;8.60;6.47;;;;;;;16.34;100.00;99690.06;4953887;28;20039;-66
2022/08/16 05:13:16;;;;;;;9.43;6.10;;;;;;;16.38;100.00;99692.47;4947315;28;20028;-66
2022/08/16 05:15:41;;;;;;;6.80;5.65;;;;;;;16.45;100.00;99698.91;4937890;28;20027;-66
2022/08/16 05:18:07;;;;;;;10.32;6.88;;;;;;;16.49;100.00;99700.34;4953170;28;20046;-66
2022/08/16 05:20:32;;;;;;;7.60;6.38;;;;;;;16.54;100.00;99692.81;4953061;28;20043;-67
2022/08/16 05:22:58;;;;;;;8.13;6.45;;;;;;;16.63;100.00;99697.34;4954041;28;20248;-67
2022/08/16 05:25:23;;;;;;;12.38;8.00;;;;;;;16.71;100.00;99700.19;4941516;28;20393;-66
2022/08/16 05:27:48;;;;;;;13.00;8.50;;;;;;;16.78;100.00;99694.22;4937153;29;20081;-66
2022/08/16 05:30:14;;;;;;;11.13;7.43;;;;;;;16.46;100.00;99626.34;4946104;28;20461;-66
2022/08/16 05:32:41;;;;;;;8.88;7.70;;;;;;;16.97;100.00;99687.28;4938791;28;20027;-66
2022/08/16 05:35:08;;;;;;;15.88;8.43;;;;;;;17.02;100.00;99693.06;4939528;28;20034;-66
2022/08/16 05:37:34;;;;;;;11.55;7.07;;;;;;;17.05;100.00;99684.81;4941586;28;20039;-66
2022/08/16 05:40:00;;;;;;;12.35;8.68;;;;;;;17.04;100.00;99676.00;4931387;28;20055;-66
2022/08/16 05:42:25;;;;;;;13.00;8.23;;;;;;;17.17;100.00;99684.56;4936273;29;20047;-67
2022/08/16 05:44:51;;;;;;;10.57;7.97;;;;;;;17.26;100.00;99706.81;4948214;28;20027;-66
2022/08/16 05:47:16;;;;;;;10.70;8.43;;;;;;;17.32;100.00;99699.16;4947069;28;20027;-66
2022/08/16 05:49:41;;;;;;;12.07;8.10;;;;;;;17.42;100.00;99700.97;4953417;28;20054;-66
2022/08/16 05:52:08;;;;;;;16.75;7.55;;;;;;;17.34;100.00;99683.91;4940653;28;20549;-66
2022/08/16 05:54:34;;;;;;;8.18;6.78;;;;;;;17.51;100.00;99694.81;4939933;28;20773;-66
2022/08/16 05:56:59;;;;;;;10.80;7.07;;;;;;;17.49;100.00;99691.47;4950378;28;20031;-66
2022/08/16 05:59:25;;;;;;;8.63;5.72;;;;;;;17.62;100.00;99702.69;4953162;28;20741;-66
2022/08/16 06:01:50;;;;;;;14.90;6.80;;;;;;;17.66;100.00;99712.09;4952150;28;20444;-66
2022/08/16 06:04:16;;;;;;;9.65;6.32;;;;;;;17.71;100.00;99720.50;4953982;28;20038;-67
2022/08/16 06:06:43;;;;;;;8.30;6.35;;;;;;;17.80;100.00;99720.50;4950610;28;20118;-66
2022/08/16 06:09:09;;;;;;;9.20;6.90;;;;;;;17.88;100.00;99717.13;4937993;28;20131;-66
2022/08/16 06:11:35;;;;;;;12.75;7.05;;;;;;;17.98;100.00;99704.66;4949644;28;20488;-66
2022/08/16 06:14:00;;;;;;;6.75;6.05;;;;;;;18.03;100.00;99698.94;4942051;28;20039;-66
2022/08/16 06:16:25;;;;;;;10.63;7.88;;;;;;;18.16;100.00;99708.28;4949965;28;20366;-67
2022/08/16 06:18:51;;;;;;;12.90;7.60;;;;;;;18.27;100.00;99710.81;4946454;28;20027;-66
2022/08/16 06:21:16;;;;;;;15.20;8.65;;;;;;;18.38;100.00;99713.28;4953168;28;20019;-67
2022/08/16 06:23:42;;;;;;;10.98;7.82;;;;;;;18.45;100.00;99720.72;4953064;28;20028;-67
2022/08/16 06:26:07;;;;;;;10.32;8.63;;;;;;;18.48;100.00;99715.94;4947787;28;20496;-67
2022/08/16 06:28:33;;;;;;;13.50;8.98;;;;;;;18.65;100.00;99727.69;4951678;28;20038;-67
2022/08/16 06:30:59;;;;;;;14.55;8.68;;;;;;;18.69;100.00;99721.91;4948840;28;20032;-67
2022/08/16 06:33:24;;;;;;;10.98;7.80;;;;;;;18.84;100.00;99727.63;4937565;28;20027;-67
2022/08/16 06:35:51;;;;;;;13.07;8.13;;;;;;;18.64;100.00;99683.44;4936966;28;20548;-67
2022/08/16 06:38:16;;;;;;;12.82;9.13;;;;;;;19.00;100.00;99730.50;4943467;28;20031;-67
2022/08/16 06:40:41;;;;;;;12.32;9.63;;;;;;;19.11;100.00;99724.16;4938020;28;20032;-67
2022/08/16 06:43:07;;;;;;;14.85;9.52;;;;;;;19.22;100.00;99726.63;4945176;29;20074;-67
2022/08/16 06:45:36;;;;;;;18.75;9.88;;;;;;;19.21;100.00;99696.47;4952042;28;20037;-67
2022/08/16 06:48:03;;;;;;;12.23;9.73;;;;;;;19.47;100.00;99719.78;4952821;29;20031;-67
2022/08/16 06:50:28;;;;;;;15.68;10.00;;;;;;;19.54;100.00;99718.16;4941382;28;20104;-67
2022/08/16 06:52:53;;;;;;;14.18;9.18;;;;;;;19.72;100.00;99733.22;4933432;28;20470;-67
2022/08/16 06:55:19;;;;;;;11.30;10.10;;;;;;;19.61;100.00;99693.44;4934464;28;20066;-67
2022/08/16 06:57:44;;;;;;;14.55;9.90;;;;;;;19.85;100.00;99719.50;4951377;28;20042;-67
2022/08/16 07:00:12;;;;;;;13.27;9.90;;;;;;;20.04;100.00;99732.66;4952841;28;20034;-67
2022/08/16 07:02:43;;;;;;;17.10;9.43;;;;;;;20.07;100.00;99732.38;4929042;28;20031;-67
2022/08/16 07:05:09;;;;;;;10.10;8.60;;;;;;;20.21;100.00;99737.13;4936469;28;20032;-66
2022/08/16 07:07:35;;;;;;;10.45;8.20;;;;;;;20.28;100.00;99740.91;4948132;28;20081;-67
2022/08/16 07:10:02;;;;;;;13.57;9.77;;;;;;;20.34;100.00;99742.97;4951095;28;20031;-68
2022/08/16 07:12:27;;;;;;;14.68;8.23;;;;;;;20.38;100.00;99743.47;4939459;28;20043;-67
2022/08/16 07:14:53;;;;;;;10.57;8.35;;;;;;;20.44;100.00;99747.38;4935385;28;20077;-67
2022/08/16 07:17:20;;;;;;;10.57;7.90;;;;;;;20.34;100.00;99713.63;4946280;28;20029;-67
2022/08/16 07:19:45;;;;;;;11.98;8.82;;;;;;;20.64;100.00;99754.19;4951829;28;20122;-67
2022/08/16 07:22:11;;;;;;;9.98;8.57;;;;;;;20.69;100.00;99757.22;4951148;28;20109;-67
2022/08/16 07:24:36;;;;;;;8.57;7.03;;;;;;;20.80;100.00;99760.47;4946334;28;20015;-67
2022/08/16 07:27:02;;;;;;;9.18;7.18;;;;;;;20.89;100.00;99753.31;4951322;28;20063;-67
2022/08/16 07:29:28;;;;;;;12.55;7.47;;;;;;;20.94;100.00;99756.38;4948342;28;20764;-67
2022/08/16 07:31:54;;;;;;;13.15;8.05;;;;;;;21.07;100.00;99756.78;4944054;28;20121;-67
2022/08/16 07:34:20;;;;;;;11.63;7.63;;;;;;;21.17;100.00;99749.50;4941126;28;20106;-67
2022/08/16 07:36:45;;;;;;;11.70;7.65;;;;;;;21.28;100.00;99751.06;4936031;28;20457;-67
2022/08/16 07:39:12;;;;;;;8.93;6.45;;;;;;;21.43;100.00;99759.31;4940096;29;20446;-67
2022/08/16 07:41:38;;;;;;;8.98;6.43;;;;;;;21.50;100.00;99749.63;4951548;28;20031;-67
2022/08/16 07:44:03;;;;;;;14.68;7.63;;;;;;;21.63;100.00;99756.19;4951863;28;20777;-67
2022/08/16 07:46:29;;;;;;;9.57;7.80;;;;;;;21.77;100.00;99765.41;4940063;28;20032;-67
2022/08/16 07:48:54;;;;;;;13.65;7.57;;;;;;;21.62;100.00;99724.28;4950559;28;20031;-66
2022/08/16 07:51:20;;;;;;;10.10;6.43;;;;;;;22.01;100.00;99770.84;4944864;28;20033;-67
2022/08/16 07:53:50;;;;;;;11.88;7.53;;;;;;;22.06;100.00;99757.81;4936987;28;20130;-67
2022/08/16 07:56:16;;;;;;;15.52;7.47;;;;;;;22.23;100.00;99772.88;4935941;28;20110;-67
2022/08/16 07:58:41;;;;;;;7.57;6.70;;;;;;;22.34;100.00;99772.53;4937882;28;20398;-66
2022/08/16 08:01:07;;;;;;;12.88;8.02;;;;;;;22.45;100.00;99773.19;4950714;28;20031;-67
2022/08/16 08:03:33;;;;;;;13.05;6.65;;;;;;;22.48;100.00;99778.22;4943762;28;20497;-67
2022/08/16 08:05:59;;;;;;;8.55;6.20;;;;;;;22.52;100.00;99776.88;4949921;28;20466;-67
2022/08/16 08:08:25;;;;;;;13.68;6.75;;;;;;;22.63;100.00;99776.53;4947760;28;20031;-66
2022/08/16 08:10:51;;;;;;;7.50;6.40;;;;;;;22.75;100.00;99769.84;4941425;28;20074;-67
2022/08/16 08:13:16;;;;;;;8.13;6.80;;;;;;;22.87;100.00;99780.06;4944154;28;20081;-66
2022/08/16 08:15:41;;;;;;;7.43;6.22;;;;;;;22.97;100.00;99769.16;4943012;28;20085;-66
2022/08/16 08:18:07;;;;;;;8.43;6.43;;;;;;;22.99;100.00;99761.75;4935758;28;20023;-67
2022/08/16 08:20:32;;;;;;;7.15;5.93;;;;;;;23.10;100.00;99777.47;4950083;28;20461;-67
2022/08/16 08:22:58;;;;;;;9.60;6.50;;;;;;;23.16;100.00;99771.44;4947600;28;20040;-67
2022/08/16 08:25:24;;;;;;;13.27;6.43;;;;;;;23.21;100.00;99777.13;4950624;28;20027;-67
2022/08/16 08:27:49;;;;;;;8.23;6.32;;;;;;;23.31;100.00;99788.47;4964274;28;20040;-67
2022/08/16 08:30:14;;;;;;;9.18;6.47;;;;;;;23.37;100.00;99800.34;4928587;28;20542;-67
2022/08/16 08:32:40;;;;;;;9.82;6.10;;;;;;;23.37;100.00;99801.19;4936194;28;20081;-67
2022/08/16 08:35:06;;;;;;;12.70;7.35;;;;;;;23.37;100.00;99803.03;4942695;28;20023;-67
2022/08/16 08:37:33;;;;;;;10.20;7.03;;;;;;;23.45;100.00;99804.88;4936244;28;20122;-67
2022/08/16 08:39:58;;;;;;;10.38;6.80;;;;;;;23.50;100.00;99802.50;4949856;28;20035;-66
2022/08/16 08:42:25;;;;;;;9.35;6.90;;;;;;;23.49;100.00;99801.66;4951072;28;20031;-66
2022/08/16 08:44:50;;;;;;;6.80;6.05;;;;;;;23.51;100.00;99798.81;4953235;29;20115;-66
2022/08/16 08:47:16;;;;;;;11.32;6.57;;;;;;;23.53;100.00;99792.25;4947240;28;20110;-67
2022/08/16 08:49:42;;;;;;;9.65;6.43;;;;;;;23.62;100.00;99793.91;4951056;28;20390;-66
2022/08/16 08:52:08;;;;;;;9.63;7.10;;;;;;;23.69;100.00;99786.00;4944023;28;20106;-67
2022/08/16 08:54:33;;;;;;;12.95;7.28;;;;;;;23.80;100.00;99799.00;4934650;28;20547;-67
2022/08/16 08:56:59;;;;;;;12.00;7.18;;;;;;;23.95;100.00;99797.25;4934452;28;20102;-67
2022/08/16 08:59:24;;;;;;;11.55;7.30;;;;;;;24.11;100.00;99798.97;4950455;29;20494;-67
2022/08/16 09:01:50;;;;;;;9.07;6.82;;;;;;;24.22;100.00;99802.13;4888180;28;1827534;-67
2022/08/16 09:04:16;;;;;;;12.55;6.65;;;;;;;24.31;100.00;99803.72;4953954;28;20023;-67
2022/08/16 09:06:42;;;;;;;13.07;7.60;;;;;;;24.33;100.00;99800.88;4954241;28;20023;-67
2022/08/16 09:09:08;;;;;;;12.80;6.43;;;;;;;24.34;100.00;99803.38;5014439;28;20035;-66
2022/08/16 09:11:35;;;;;;;8.95;6.30;;;;;;;24.40;100.00;99796.47;4942733;28;20030;-67
2022/08/16 09:14:00;;;;;;;10.30;6.10;;;;;;;24.46;100.00;99805.66;4940222;28;20039;-67
2022/08/16 09:16:26;;;;;;;10.18;5.68;;;;;;;24.48;100.00;99793.69;4941958;28;20024;-67
2022/08/16 09:18:51;;;;;;;12.68;5.97;;;;;;;24.63;100.00;99812.56;5017947;28;20059;-67
2022/08/16 09:21:17;;;;;;;8.05;5.95;;;;;;;24.63;100.00;99801.81;4953305;28;20027;-67
2022/08/16 09:23:43;;;;;;;7.45;5.75;;;;;;;24.61;100.00;99799.28;4953469;29;20110;-67
2022/08/16 09:26:11;;;;;;;7.20;5.32;;;;;;;24.72;100.00;99804.22;4944490;28;20126;-68
2022/08/16 09:28:37;;;;;;;8.27;5.50;;;;;;;24.73;100.00;99797.00;4952773;28;20031;-68
2022/08/16 09:31:04;;;;;;;12.80;5.60;;;;;;;24.75;100.00;99803.03;4941952;28;20038;-67
2022/08/16 09:33:29;;;;;;;10.65;5.28;;;;;;;24.88;100.00;99808.63;4942949;28;20031;-66
2022/08/16 09:35:55;;;;;;;7.85;5.45;;;;;;;24.97;100.00;99802.19;4942345;28;20039;-68
2022/08/16 09:38:22;;;;;;;10.85;5.60;;;;;;;25.07;100.00;99800.06;4954096;28;20453;-67
2022/08/16 09:40:48;;;;;;;6.25;4.85;;;;;;;25.14;100.00;99800.16;4947077;28;20035;-67
2022/08/16 09:43:17;;;;;;;9.73;5.68;;;;;;;25.21;100.00;99793.03;4952353;28;20035;-67
2022/08/16 09:45:42;;;;;;;7.03;5.35;;;;;;;25.30;100.00;99791.91;4953460;28;20108;-66
2022/08/16 09:48:09;;;;;;;11.27;5.25;;;;;;;25.40;100.00;99795.97;4948802;28;20062;-66
2022/08/16 09:50:36;;;;;;;11.18;6.05;;;;;;;25.55;100.00;99795.16;4943288;28;20031;-66
2022/08/16 09:53:03;;;;;;;8.10;6.07;;;;;;;25.65;100.00;99801.09;4932970;28;20037;-66
2022/08/16 09:55:28;;;;;;;11.95;5.30;;;;;;;25.69;100.00;99791.59;4935841;28;20066;-67
2022/08/16 09:57:54;;;;;;;15.07;5.93;;;;;;;25.82;100.00;99795.28;4939434;28;20469;-67
2022/08/16 10:00:20;;;;;;;10.20;5.38;;;;;;;25.85;100.00;99799.47;4941791;28;20028;-67
2022/08/16 10:02:46;;;;;;;11.25;5.35;;;;;;;25.91;100.00;99790.63;4941286;28;20119;-66
2022/08/16 10:05:11;;;;;;;8.18;5.53;;;;;;;25.98;100.00;99788.84;4953025;29;20458;-66
2022/08/16 10:07:37;;;;;;;18.52;6.03;;;;;;;26.09;100.00;99792.88;4952588;28;20031;-66
2022/08/16 10:10:04;;;;;;;11.70;5.85;;;;;;;26.19;100.00;99799.63;4952152;28;20439;-67
2022/08/16 10:15:19;;;;;;;8.10;4.72;;;;;;;26.66;100.00;99799.06;4952488;28;20062;-66
2022/08/16 10:17:53;;;;;;;11.30;5.57;;;;;;;26.77;98.81;99803.06;4952855;28;20051;-67
2022/08/16 10:20:18;;;;;;;;;;;;;;;26.81;99.65;99804.34;4939964;28;20481;-67
2022/08/16 10:22:44;;;;;;;7.47;4.22;;;;;;;26.73;94.67;99799.09;4947682;28;19925;-66
2022/08/16 10:25:10;;;;;;;9.05;4.57;;;;;;;26.68;94.78;99804.25;4951069;29;20047;-67
2022/08/16 10:27:35;;;;;;;6.40;4.47;;;;;;;26.57;95.43;99804.75;4950227;29;20087;-67
2022/08/16 10:30:03;;;;;;;8.35;4.47;;;;;;;26.47;94.90;99806.94;4947503;28;20474;-67
2022/08/16 10:32:29;;;;;;;8.93;4.43;;;;;;;26.31;94.55;99790.03;4925064;28;20119;-67
2022/08/16 10:34:54;;;;;;;7.40;4.70;;;;;;;26.46;95.64;99816.09;4973937;28;20494;-67
2022/08/16 10:37:19;;;;;;;14.30;5.13;;;;;;;26.56;95.73;99809.34;4939448;28;20088;-67
2022/08/16 10:39:45;;;;;;;6.18;5.03;;;;;;;26.75;95.23;99814.06;4952620;29;20027;-67
2022/08/16 10:42:11;;;;;;;8.88;4.35;;;;;;;26.98;96.24;99813.84;4952146;28;20382;-67
2022/08/16 10:44:36;;;;;;;8.70;5.63;;;;;;;27.24;93.56;99811.31;4952628;28;20035;-68
2022/08/16 10:47:02;;;;;;;10.52;5.85;;;;;;;27.28;91.91;99820.69;4950860;28;20035;-68
2022/08/16 10:49:28;;;;;;;12.68;5.80;;;;;;;27.23;93.60;99812.38;4933362;28;20046;-67
2022/08/16 10:51:54;;;;;;;10.05;4.95;;;;;;;27.35;93.51;99826.94;4945348;28;20031;-67
2022/08/16 10:54:20;;;;;;;7.57;4.25;;;;;;;27.47;88.96;99818.34;4942491;28;21436;-68
2022/08/16 10:56:45;;;;;;;9.10;4.78;;;;;;;27.51;86.63;99817.72;4939379;28;20074;-67
2022/08/16 10:59:11;;;;;;;8.73;5.00;;;;;;;27.34;87.20;99806.38;4951604;28;20039;-68
2022/08/16 11:01:36;;;;;;;9.48;4.55;;;;;;;27.36;86.05;99823.22;4944823;28;20031;-67
2022/08/16 11:04:02;;;;;;;7.05;4.30;;;;;;;27.31;85.10;99831.06;4950986;28;20059;-67
2022/08/16 11:06:28;;;;;;;13.00;4.40;;;;;;;27.01;86.16;99778.38;5008352;28;20077;-67
2022/08/16 11:08:53;;;;;;;7.10;4.43;;;;;;;27.27;86.86;99819.03;4948773;28;20034;-67
2022/08/16 11:11:19;;;;;;;5.88;4.45;;;;;;;27.19;87.55;99826.44;4941944;28;20092;-67
2022/08/16 11:13:47;;;;;;;9.55;4.75;;;;;;;27.09;87.79;99831.34;4938949;28;20043;-67
2022/08/16 11:16:13;;;;;;;9.45;4.63;;;;;;;26.99;89.03;99831.69;4936550;28;20110;-67
2022/08/16 11:18:38;;;;;;;7.80;4.40;;;;;;;26.62;87.34;99791.53;4946509;28;20023;-67
2022/08/16 11:21:04;;;;;;;7.10;4.30;;;;;;;26.92;88.29;99836.22;4939344;28;20027;-67